Time;durP1;ratioP1;P1;durP2;ratioP2;P2;SDS_P1;SDS_P2;PMS_P1;PMS_P2;Temp;Humidity;BMP_temperature;BMP_pressure;BME280_temperature;BME280_humidity;BME280_pressure;Samples;Min_cycle;Max_cycle;Signal;HPM_P1;HPM_P2
2022/01/30 00:01:04;;;;;;;1.27;1.17;;;;;;;4.00;100.00;96651.28;4976762;28;20468;-74
2022/01/30 00:03:31;;;;;;;1.10;1.00;;;;;;;3.78;100.00;96628.22;5001590;28;20477;-74
2022/01/30 00:05:58;;;;;;;1.13;1.13;;;;;;;3.85;100.00;96620.81;5018350;28;20466;-74
2022/01/30 00:08:24;;;;;;;0.93;0.93;;;;;;;3.87;100.00;96617.94;5018381;28;20526;-74
2022/01/30 00:10:57;;;;;;;1.03;0.90;;;;;;;3.85;100.00;96623.44;5013954;28;20431;-74
2022/01/30 00:13:26;;;;;;;1.30;1.20;;;;;;;3.72;100.00;96605.78;5013928;28;20474;-74
2022/01/30 00:15:54;;;;;;;1.53;1.43;;;;;;;3.98;100.00;96650.00;5013706;28;20462;-74
2022/01/30 00:21:37;;;;;;;1.17;1.07;;;;;;;4.03;100.00;96639.53;5013345;28;20557;-73
2022/01/30 00:24:13;;;;;;;3.80;1.93;;;;;;;3.94;100.00;96607.16;4957127;28;20461;-74
2022/01/30 00:26:41;;;;;;;1.90;1.63;;;;;;;4.10;100.00;96643.34;4957380;28;20807;-74
2022/01/30 00:29:08;;;;;;;1.57;1.47;;;;;;;3.92;100.00;96604.81;4941194;28;21016;-74
2022/01/30 00:31:37;;;;;;;2.13;1.50;;;;;;;4.12;100.00;96643.84;4957462;28;20445;-74
2022/01/30 00:34:23;;;;;;;3.20;1.93;;;;;;;4.20;100.00;96647.72;4973342;28;20559;-74
2022/01/30 00:36:50;;;;;;;3.07;2.80;;;;;;;4.18;100.00;96656.91;4973135;28;20851;-74
2022/01/30 00:39:17;;;;;;;10.30;2.30;;;;;;;3.92;100.00;96619.75;4972983;28;20989;-74
2022/01/30 00:41:43;;;;;;;2.70;2.30;;;;;;;4.12;100.00;96645.69;4957207;28;20848;-74
2022/01/30 00:44:15;;;;;;;1.63;1.53;;;;;;;3.94;100.00;96618.41;4973183;28;20492;-74
2022/01/30 00:46:44;;;;;;;3.77;2.33;;;;;;;4.22;100.00;96642.22;4956509;28;20970;-73
2022/01/30 00:49:12;;;;;;;3.53;1.87;;;;;;;4.38;100.00;96648.84;4956983;28;20433;-74
2022/01/30 00:51:39;;;;;;;6.50;2.57;;;;;;;4.24;100.00;96633.00;4972840;28;20444;-74
2022/01/30 00:54:05;;;;;;;2.80;2.00;;;;;;;4.20;100.00;96615.53;4956314;28;20920;-74
2022/01/30 00:56:32;;;;;;;1.63;1.53;;;;;;;4.37;100.00;96649.91;4940581;28;20871;-74
2022/01/30 00:59:02;;;;;;;3.37;2.13;;;;;;;4.21;100.00;96606.63;4972704;28;20491;-74
2022/01/30 01:01:32;;;;;;;1.93;1.50;;;;;;;4.04;100.00;96583.53;5001303;28;20466;-74
2022/01/30 01:04:01;;;;;;;4.60;3.17;;;;;;;4.06;100.00;96610.97;5011889;28;20470;-74
2022/01/30 01:06:27;;;;;;;5.80;3.27;;;;;;;4.21;100.00;96627.56;5011823;28;20828;-74
2022/01/30 01:09:01;;;;;;;7.27;3.30;;;;;;;3.67;100.00;96576.28;5011883;28;20497;-73
2022/01/30 01:24:57;;;;;;;5.30;2.73;;;;;;;4.07;100.00;96609.13;5013836;28;20466;-74
2022/01/30 01:27:23;;;;;;;5.67;2.60;;;;;;;4.29;100.00;96626.97;5014340;28;20862;-73
2022/01/30 01:29:50;;;;;;;4.23;2.63;;;;;;;4.16;100.00;96610.09;4998079;28;20814;-73
2022/01/30 01:32:17;;;;;;;3.90;2.63;;;;;;;4.29;100.00;96643.44;5014503;28;20458;-73
2022/01/30 01:34:44;;;;;;;4.07;2.87;;;;;;;4.18;100.00;96626.28;5013386;28;20487;-73
2022/01/30 01:37:12;;;;;;;6.00;2.80;;;;;;;4.14;100.00;96628.69;5013708;28;20494;-74
2022/01/30 01:39:44;;;;;;;7.10;2.37;;;;;;;3.97;100.00;96602.16;5013335;28;20459;-74
2022/01/30 01:42:10;;;;;;;3.60;2.03;;;;;;;3.93;100.00;96609.00;5013341;28;20431;-74
2022/01/30 01:44:42;;;;;;;4.53;2.53;;;;;;;4.01;100.00;96605.00;5013176;28;20463;-74
2022/01/30 01:47:10;;;;;;;4.03;2.40;;;;;;;4.17;100.00;96640.44;5012954;28;20454;-73
2022/01/30 01:49:39;;;;;;;3.57;2.23;;;;;;;4.14;100.00;96647.00;5012832;28;20497;-73
2022/01/30 01:52:21;;;;;;;2.93;2.50;;;;;;;4.12;100.00;96645.69;5012753;28;21039;-73
2022/01/30 01:54:52;;;;;;;5.70;2.33;;;;;;;4.14;100.00;96644.38;4996494;28;20455;-73
2022/01/30 01:57:20;;;;;;;4.83;1.70;;;;;;;3.99;100.00;96607.09;5012793;28;20443;-73
2022/01/30 02:00:08;;;;;;;4.10;2.43;;;;;;;3.99;100.00;96615.72;5003061;28;20617;-73
2022/01/30 02:02:40;;;;;;;4.23;2.10;;;;;;;3.93;100.00;96606.38;5013922;28;20438;-74
2022/01/30 02:05:09;;;;;;;3.73;2.50;;;;;;;3.85;100.00;96596.50;4994492;28;20455;-73
2022/01/30 02:10:11;;;;;;;12.73;4.47;;;;;;;3.94;100.00;96607.16;5010801;28;20435;-74
2022/01/30 02:12:47;;;;;;;2.80;2.57;;;;;;;3.88;100.00;96601.22;5011046;28;20419;-74
2022/01/30 02:26:00;;;;;;;4.40;2.50;;;;;;;3.99;100.00;96654.19;5010477;28;20945;-73
2022/01/30 02:28:29;;;;;;;9.17;3.30;;;;;;;3.80;100.00;96638.41;5010312;28;20971;-74
2022/01/30 02:31:04;;;;;;;9.20;4.40;;;;;;;3.73;100.00;96635.31;5010280;28;20427;-74
2022/01/30 02:33:32;;;;;;;5.33;3.20;;;;;;;3.78;100.00;96650.97;4993566;28;20482;-74
2022/01/30 02:35:59;;;;;;;8.03;3.23;;;;;;;3.86;100.00;96682.53;5010300;28;20454;-74
2022/01/30 02:38:26;;;;;;;4.13;2.20;;;;;;;3.79;100.00;96636.84;4993887;28;20443;-73
2022/01/30 02:40:56;;;;;;;10.27;2.70;;;;;;;3.97;100.00;96682.47;5010039;28;20517;-74
2022/01/30 02:43:32;;;;;;;5.70;3.30;;;;;;;3.77;100.00;96636.34;5010075;28;20550;-74
2022/01/30 02:48:49;;;;;;;5.43;2.90;;;;;;;3.74;100.00;96636.88;5010093;28;20470;-73
2022/01/30 02:51:19;;;;;;;7.23;3.20;;;;;;;3.67;100.00;96631.19;5010143;28;21010;-74
2022/01/30 02:53:54;;;;;;;5.77;2.90;;;;;;;3.74;100.00;96631.66;4993741;28;20462;-74
2022/01/30 02:56:22;;;;;;;5.23;2.77;;;;;;;3.78;100.00;96630.06;5010002;28;20430;-74
2022/01/30 02:58:49;;;;;;;7.37;3.10;;;;;;;3.68;100.00;96643.22;5010008;28;20455;-74
2022/01/30 03:01:15;;;;;;;6.93;2.67;;;;;;;3.81;100.00;96666.91;4993705;28;20517;-74
2022/01/30 03:03:43;;;;;;;3.57;3.10;;;;;;;3.86;100.00;96664.22;5009847;28;20455;-73
2022/01/30 03:06:10;;;;;;;5.67;3.23;;;;;;;3.86;100.00;96663.44;5009959;28;20468;-73
2022/01/30 03:08:37;;;;;;;8.03;3.53;;;;;;;3.79;100.00;96649.91;5010206;28;20518;-73
2022/01/30 03:11:04;;;;;;;8.50;3.53;;;;;;;3.91;100.00;96671.28;5010044;28;20463;-73
2022/01/30 03:13:31;;;;;;;9.33;3.50;;;;;;;3.98;100.00;96674.34;5010272;28;20455;-74
2022/01/30 03:16:00;;;;;;;5.43;3.13;;;;;;;3.85;100.00;96654.81;5010152;28;20457;-74
2022/01/30 03:18:27;;;;;;;8.13;3.90;;;;;;;3.42;100.00;96591.13;5009892;28;20526;-74
2022/01/30 03:20:54;;;;;;;6.87;3.10;;;;;;;3.78;100.00;96628.22;5010126;28;20959;-74
2022/01/30 03:23:22;;;;;;;4.17;2.83;;;;;;;3.56;100.00;96623.41;5010019;28;20455;-74
2022/01/30 03:25:54;;;;;;;8.63;2.60;;;;;;;4.04;100.00;96646.31;5010064;28;20446;-74
2022/01/30 03:28:28;;;;;;;4.00;2.60;;;;;;;3.96;100.00;96655.53;5010043;28;20447;-74
2022/01/30 03:31:07;;;;;;;16.80;3.23;;;;;;;3.96;100.00;96671.22;5009999;28;20530;-74
2022/01/30 03:33:41;;;;;;;7.37;3.03;;;;;;;3.77;100.00;96610.97;4994518;28;20466;-73
2022/01/30 03:36:08;;;;;;;3.63;3.10;;;;;;;3.86;100.00;96656.38;5009670;28;20526;-73
2022/01/30 03:38:34;;;;;;;14.33;3.37;;;;;;;3.75;100.00;96628.00;4993450;28;20434;-73
2022/01/30 03:41:03;;;;;;;5.13;3.00;;;;;;;3.81;100.00;96635.50;5009651;28;21062;-73
2022/01/30 03:43:32;;;;;;;17.87;3.67;;;;;;;3.96;100.00;96660.75;4993651;28;20469;-73
2022/01/30 03:45:59;;;;;;;6.63;2.93;;;;;;;3.83;100.00;96651.69;5011931;28;20497;-74
2022/01/30 03:48:26;;;;;;;20.30;3.50;;;;;;;3.96;100.00;96671.22;5013455;28;20963;-74
2022/01/30 03:51:07;;;;;;;8.00;3.30;;;;;;;3.77;100.00;96652.03;5013496;28;20419;-74
2022/01/30 03:53:33;;;;;;;6.63;2.77;;;;;;;3.69;100.00;96650.78;4997099;28;20470;-74
2022/01/30 03:56:01;;;;;;;6.03;2.43;;;;;;;3.69;100.00;96692.59;5013354;28;20977;-74
2022/01/30 03:58:31;;;;;;;4.13;1.87;;;;;;;3.64;100.00;96670.97;5013171;28;21013;-73
2022/01/30 04:01:04;;;;;;;4.67;2.87;;;;;;;3.51;100.00;96651.44;5013044;28;20493;-73
2022/01/30 04:03:31;;;;;;;4.07;1.97;;;;;;;3.73;100.00;96698.06;4996880;28;20871;-73
2022/01/30 04:05:58;;;;;;;9.53;1.90;;;;;;;3.66;100.00;96695.78;5013366;28;20463;-73
2022/01/30 04:08:25;;;;;;;11.20;3.27;;;;;;;3.60;100.00;96701.28;4996876;28;20446;-74
2022/01/30 04:10:59;;;;;;;5.90;2.17;;;;;;;3.48;100.00;96694.59;4998001;28;20458;-74
2022/01/30 04:13:45;;;;;;;1.70;1.60;;;;;;;2.92;100.00;96593.03;5014746;28;20461;-74
2022/01/30 04:16:18;;;;;;;2.30;2.10;;;;;;;3.41;100.00;96686.25;5013007;28;20431;-74
2022/01/30 04:19:14;;;;;;;6.70;2.93;;;;;;;3.39;100.00;96680.53;5014644;28;20423;-73
2022/01/30 04:21:50;;;;;;;3.43;1.87;;;;;;;3.55;100.00;96696.88;4957753;28;21048;-73
2022/01/30 04:24:35;;;;;;;2.80;1.80;;;;;;;3.46;100.00;96672.38;4959332;28;20989;-74
2022/01/30 04:27:11;;;;;;;9.70;2.73;;;;;;;3.38;100.00;96681.59;4972797;28;20470;-74
2022/01/30 04:29:45;;;;;;;4.07;2.53;;;;;;;3.53;100.00;96705.00;4956443;28;20551;-74
2022/01/30 04:32:36;;;;;;;6.30;2.13;;;;;;;3.31;100.00;96688.16;4972115;28;20453;-73
2022/01/30 04:35:35;;;;;;;3.80;1.67;;;;;;;3.17;100.00;96695.81;4961807;28;20857;-74
2022/01/30 05:05:11;;;;;;;4.33;2.20;;;;;;;3.20;100.00;96718.78;5013256;28;20458;-73
2022/01/30 05:08:05;;;;;;;9.07;2.40;;;;;;;2.94;100.00;96679.72;5012324;28;20995;-74
2022/01/30 05:10:52;;;;;;;9.17;2.80;;;;;;;2.96;100.00;96663.78;5013413;28;20939;-74
2022/01/30 05:13:54;;;;;;;8.70;2.50;;;;;;;2.87;100.00;96709.78;4941345;29;20987;-74
2022/01/30 05:16:35;;;;;;;4.93;2.60;;;;;;;2.98;100.00;96703.47;4993226;28;20447;-74
2022/01/30 05:19:16;;;;;;;3.53;2.87;;;;;;;3.23;100.00;96726.09;5011737;28;20869;-73
2022/01/30 05:22:09;;;;;;;5.93;2.93;;;;;;;3.19;100.00;96717.22;5007895;28;20479;-73
2022/01/30 05:24:59;;;;;;;8.07;2.73;;;;;;;3.00;100.00;96721.50;5012804;28;21062;-74
2022/01/30 05:27:31;;;;;;;4.90;2.30;;;;;;;3.07;100.00;96707.09;5011748;28;20529;-74
2022/01/30 05:30:27;;;;;;;7.53;2.40;;;;;;;3.07;100.00;96725.38;4999583;28;20451;-74
2022/01/30 05:32:57;;;;;;;5.77;3.37;;;;;;;2.99;100.00;96715.47;5012670;28;20439;-74
2022/01/30 05:35:43;;;;;;;3.83;2.27;;;;;;;3.09;100.00;96738.16;5011619;28;20806;-73
2022/01/30 05:38:29;;;;;;;3.03;1.80;;;;;;;2.91;100.00;96698.53;5013014;28;20413;-73
2022/01/30 05:41:16;;;;;;;16.40;3.63;;;;;;;3.11;100.00;96752.53;4982016;28;20469;-73
2022/01/30 05:44:20;;;;;;;7.30;3.40;;;;;;;3.04;100.00;96730.34;4979445;28;20554;-74
2022/01/30 05:47:15;;;;;;;4.30;2.90;;;;;;;3.09;100.00;96738.97;5011328;28;20435;-74
2022/01/30 05:50:06;;;;;;;4.83;3.70;;;;;;;2.94;100.00;96718.13;4984429;28;20452;-74
2022/01/30 05:53:00;;;;;;;6.33;3.60;;;;;;;3.08;100.00;96736.63;5011136;28;20444;-74
2022/01/30 05:55:32;;;;;;;11.70;3.67;;;;;;;2.86;100.00;96716.06;5011095;28;20447;-73
2022/01/30 05:57:59;;;;;;;12.13;4.27;;;;;;;2.98;100.00;96729.59;5011181;28;20450;-74
2022/01/30 06:00:44;;;;;;;5.67;3.43;;;;;;;2.86;100.00;96711.63;5011049;28;20463;-74
2022/01/30 06:03:11;;;;;;;4.60;2.00;;;;;;;3.04;100.00;96748.63;5010958;28;21065;-74
2022/01/30 06:05:39;;;;;;;7.57;2.17;;;;;;;2.86;100.00;96731.72;4994934;28;20435;-74
2022/01/30 06:08:12;;;;;;;5.40;3.37;;;;;;;2.74;100.00;96712.97;5010370;28;20471;-74
2022/01/30 06:10:40;;;;;;;14.37;3.80;;;;;;;2.68;100.00;96709.59;5010986;28;20787;-74
2022/01/30 06:13:07;;;;;;;6.00;2.90;;;;;;;2.87;100.00;96744.50;5010764;28;20439;-74
2022/01/30 06:15:33;;;;;;;5.67;2.57;;;;;;;2.72;100.00;96707.22;5010896;28;20485;-74
2022/01/30 06:18:07;;;;;;;8.10;3.50;;;;;;;2.87;100.00;96736.66;5010899;28;20431;-74
2022/01/30 06:20:54;;;;;;;9.80;3.00;;;;;;;2.79;100.00;96728.59;5011962;28;20470;-74
2022/01/30 06:23:56;;;;;;;6.23;2.60;;;;;;;2.86;100.00;96727.28;4951395;29;20464;-74
2022/01/30 06:26:23;;;;;;;12.30;4.10;;;;;;;2.63;100.00;96726.03;4994825;28;20431;-74
2022/01/30 06:29:08;;;;;;;8.93;2.80;;;;;;;2.65;100.00;96736.22;5011396;28;20425;-73
2022/01/30 06:31:53;;;;;;;8.43;3.90;;;;;;;2.81;100.00;96776.91;5011789;28;20554;-73
2022/01/30 06:34:38;;;;;;;12.90;4.27;;;;;;;2.75;100.00;96777.19;5010872;28;20474;-73
2022/01/30 06:37:30;;;;;;;9.53;3.10;;;;;;;2.78;100.00;96787.88;5011852;28;20493;-73
2022/01/30 06:40:05;;;;;;;6.80;2.40;;;;;;;2.62;100.00;96762.84;5010494;28;20438;-74
2022/01/30 06:42:52;;;;;;;9.43;3.30;;;;;;;2.92;100.00;96801.16;5010170;28;20998;-74
2022/01/30 06:45:42;;;;;;;4.63;1.83;;;;;;;2.85;100.00;96777.94;4983426;28;20455;-74
2022/01/30 06:48:28;;;;;;;6.50;2.20;;;;;;;2.63;100.00;96759.97;5011059;28;20549;-73
2022/01/30 06:51:27;;;;;;;6.53;2.67;;;;;;;2.73;100.00;96771.44;4978484;28;20882;-74
2022/01/30 06:54:29;;;;;;;5.17;2.77;;;;;;;2.74;100.00;96765.16;5010530;28;20470;-73
2022/01/30 06:57:14;;;;;;;4.20;2.40;;;;;;;2.71;100.00;96770.94;5011682;28;20421;-73
2022/01/30 07:00:00;;;;;;;14.90;4.70;;;;;;;2.85;100.00;96777.94;5011117;28;21200;-73
2022/01/30 07:03:05;;;;;;;4.97;2.70;;;;;;;2.70;100.00;96770.16;5010413;28;20821;-73
2022/01/30 07:05:48;;;;;;;5.97;3.20;;;;;;;2.83;100.00;96787.88;4921234;29;20449;-73
2022/01/30 07:08:34;;;;;;;11.20;3.93;;;;;;;2.71;100.00;96774.31;4950803;29;21009;-73
2022/01/30 07:11:00;;;;;;;7.73;2.73;;;;;;;2.77;100.00;96775.06;4950741;29;20529;-73
2022/01/30 07:13:27;;;;;;;3.70;2.43;;;;;;;2.62;100.00;96761.00;4950938;29;20497;-74
2022/01/30 07:15:54;;;;;;;7.53;4.17;;;;;;;2.59;100.00;96761.53;4919085;29;20482;-74
2022/01/30 07:18:20;;;;;;;9.63;2.60;;;;;;;2.53;100.00;96765.19;4934739;29;20448;-74
2022/01/30 07:20:48;;;;;;;9.10;2.90;;;;;;;2.66;100.00;96772.47;4954492;28;20445;-74
2022/01/30 07:23:14;;;;;;;3.90;2.13;;;;;;;2.59;100.00;96758.16;4938561;29;21112;-74
2022/01/30 07:25:43;;;;;;;7.50;2.97;;;;;;;2.59;100.00;96768.59;4954790;29;20469;-74
2022/01/30 07:28:10;;;;;;;4.57;2.60;;;;;;;2.76;100.00;96823.91;4954617;29;20441;-74
2022/01/30 07:30:36;;;;;;;10.03;4.43;;;;;;;2.80;100.00;96805.88;4954315;29;20966;-74
2022/01/30 07:33:04;;;;;;;4.70;2.17;;;;;;;2.65;100.00;96789.19;4938263;29;20438;-73
2022/01/30 07:35:33;;;;;;;5.30;2.50;;;;;;;2.80;100.00;96811.88;4954469;29;20827;-73
2022/01/30 07:38:00;;;;;;;8.00;2.53;;;;;;;2.66;100.00;96795.97;4938433;29;20525;-73
2022/01/30 07:40:27;;;;;;;9.50;2.43;;;;;;;2.67;100.00;96796.75;4938459;29;20528;-73
2022/01/30 07:42:53;;;;;;;7.33;3.30;;;;;;;2.85;100.00;96845.81;4983079;28;20988;-74
2022/01/30 07:45:20;;;;;;;8.23;3.20;;;;;;;2.69;100.00;96823.41;5013491;28;20557;-73
2022/01/30 07:47:47;;;;;;;13.70;3.37;;;;;;;2.86;100.00;96841.38;5013646;28;21007;-73
2022/01/30 07:50:14;;;;;;;6.47;2.23;;;;;;;2.61;100.00;96811.66;5013754;28;20431;-73
2022/01/30 07:52:41;;;;;;;4.50;2.90;;;;;;;2.88;100.00;96831.47;5013669;28;20435;-73
2022/01/30 07:55:08;;;;;;;4.10;2.10;;;;;;;2.63;100.00;96801.72;5015292;28;20501;-73
2022/01/30 07:57:35;;;;;;;12.50;2.90;;;;;;;2.91;100.00;96836.16;5017345;28;20438;-73
2022/01/30 08:00:03;;;;;;;10.00;2.80;;;;;;;2.66;100.00;96811.63;5019481;28;20430;-73
2022/01/30 08:02:38;;;;;;;11.93;2.03;;;;;;;2.69;100.00;96820.00;5014967;28;20447;-74
2022/01/30 08:05:05;;;;;;;12.73;3.70;;;;;;;2.87;100.00;96859.41;5013433;28;20467;-74
2022/01/30 08:07:32;;;;;;;4.73;2.83;;;;;;;2.91;100.00;96857.81;4997195;28;20451;-74
2022/01/30 08:09:59;;;;;;;10.63;3.37;;;;;;;2.94;100.00;96875.59;5013371;28;21353;-74
2022/01/30 08:12:26;;;;;;;9.03;2.43;;;;;;;2.82;100.00;96846.34;5013200;28;20470;-74
2022/01/30 08:14:53;;;;;;;5.13;3.27;;;;;;;2.74;100.00;96852.09;5013079;28;20503;-74
2022/01/30 08:17:22;;;;;;;4.30;2.50;;;;;;;2.73;100.00;96850.53;5013107;28;20819;-74
2022/01/30 08:19:51;;;;;;;4.37;2.20;;;;;;;2.98;100.00;96865.41;5014421;28;20470;-73
2022/01/30 08:22:18;;;;;;;5.80;2.83;;;;;;;2.78;100.00;96840.06;5012991;28;20913;-73
2022/01/30 08:24:44;;;;;;;4.53;3.20;;;;;;;2.75;100.00;96838.00;4996864;28;20510;-74
2022/01/30 08:27:11;;;;;;;8.60;3.13;;;;;;;3.01;100.00;96880.53;5013409;28;20431;-74
2022/01/30 08:29:38;;;;;;;8.07;3.60;;;;;;;2.88;100.00;96873.25;5012967;28;20435;-74
2022/01/30 08:32:11;;;;;;;8.50;2.77;;;;;;;2.77;100.00;96854.19;4996328;28;20530;-74
2022/01/30 08:34:41;;;;;;;9.60;3.27;;;;;;;2.81;100.00;96857.84;5012957;28;20470;-74
2022/01/30 08:37:07;;;;;;;5.10;2.47;;;;;;;3.00;100.00;96886.81;5012889;28;20899;-74
2022/01/30 08:39:34;;;;;;;14.17;3.77;;;;;;;2.99;100.00;96902.75;5012861;28;20467;-74
2022/01/30 08:42:01;;;;;;;11.40;3.50;;;;;;;2.93;100.00;96881.06;5012523;28;20466;-74
2022/01/30 08:44:28;;;;;;;7.83;3.60;;;;;;;3.02;100.00;96921.28;5012479;28;20463;-74
2022/01/30 08:46:54;;;;;;;7.57;3.47;;;;;;;3.00;100.00;96901.69;5012571;28;20538;-74
2022/01/30 08:49:21;;;;;;;8.73;3.47;;;;;;;2.91;100.00;96880.53;4996402;28;20579;-74
2022/01/30 08:51:48;;;;;;;4.60;3.73;;;;;;;2.75;100.00;96873.78;5012419;28;20506;-74
2022/01/30 08:54:15;;;;;;;7.33;2.80;;;;;;;2.86;100.00;96910.06;4996131;28;20868;-74
2022/01/30 08:56:42;;;;;;;11.67;2.90;;;;;;;2.92;100.00;96927.28;5012691;28;20441;-74
2022/01/30 08:59:09;;;;;;;6.17;1.97;;;;;;;2.69;100.00;96882.66;5012352;28;20470;-74
2022/01/30 09:01:35;;;;;;;6.00;2.97;;;;;;;2.80;100.00;96897.25;5012280;28;20469;-74
2022/01/30 09:04:03;;;;;;;3.07;2.43;;;;;;;2.78;100.00;96889.69;5012320;28;20448;-74
2022/01/30 09:06:31;;;;;;;5.63;3.23;;;;;;;2.82;100.00;96905.63;5013429;28;20474;-74
2022/01/30 09:09:00;;;;;;;5.90;3.30;;;;;;;2.74;100.00;96890.47;5011808;28;20822;-73
2022/01/30 09:11:27;;;;;;;7.00;4.90;;;;;;;3.13;100.00;96922.06;5011819;28;20963;-73
2022/01/30 09:13:54;;;;;;;1.73;1.63;;;;;;;3.24;100.00;96941.91;5011599;28;20467;-73
2022/01/30 09:16:20;;;;;;;7.27;2.80;;;;;;;3.15;100.00;96957.31;5011528;28;20478;-73
2022/01/30 09:18:47;;;;;;;14.93;5.63;;;;;;;3.18;100.00;96956.00;5011493;28;20439;-73
2022/01/30 09:21:14;;;;;;;4.63;1.93;;;;;;;3.17;100.00;96968.28;5011735;28;20443;-73
2022/01/30 09:23:41;;;;;;;11.97;3.03;;;;;;;2.79;100.00;96919.97;5011263;28;20571;-73
2022/01/30 09:26:08;;;;;;;6.23;2.80;;;;;;;2.99;100.00;96942.69;4995326;28;20538;-73
2022/01/30 09:28:34;;;;;;;13.40;4.50;;;;;;;2.94;100.00;96948.72;5011412;28;20446;-73
2022/01/30 09:31:01;;;;;;;18.07;3.80;;;;;;;3.12;100.00;96983.97;5011347;28;20443;-73
2022/01/30 09:33:28;;;;;;;8.50;3.43;;;;;;;3.10;100.00;96995.72;5012411;28;20458;-73
2022/01/30 09:35:54;;;;;;;7.93;3.30;;;;;;;3.14;100.00;97012.44;5011207;28;20483;-73
2022/01/30 09:38:23;;;;;;;7.37;3.30;;;;;;;2.93;100.00;96986.31;5011054;28;20461;-73
2022/01/30 09:40:54;;;;;;;11.40;4.40;;;;;;;3.00;100.00;96996.50;5011276;28;20542;-73
2022/01/30 09:43:21;;;;;;;7.27;2.50;;;;;;;3.07;100.00;96997.03;5011294;28;20532;-73
2022/01/30 09:45:50;;;;;;;9.33;4.43;;;;;;;3.13;100.00;96995.19;4994834;28;20496;-73
2022/01/30 09:48:22;;;;;;;3.93;3.00;;;;;;;3.08;100.00;96969.88;5011093;28;20792;-74
2022/01/30 09:50:49;;;;;;;11.20;3.00;;;;;;;3.20;100.00;97006.16;4994774;28;20439;-74
2022/01/30 09:53:17;;;;;;;11.33;3.47;;;;;;;3.28;100.00;97005.66;5010834;28;20470;-74
2022/01/30 09:55:44;;;;;;;5.67;1.93;;;;;;;3.21;100.00;97007.75;5011122;28;20477;-74
2022/01/30 09:58:10;;;;;;;5.33;2.73;;;;;;;3.09;100.00;96981.88;5010718;28;20446;-74
2022/01/30 10:00:37;;;;;;;8.53;3.80;;;;;;;3.29;100.00;97019.50;5010889;28;20450;-74
2022/01/30 10:03:04;;;;;;;9.53;3.17;;;;;;;3.29;100.00;97020.28;5010916;28;20513;-74
2022/01/30 10:05:35;;;;;;;8.43;2.90;;;;;;;3.31;100.00;96999.09;5012061;28;20481;-74
2022/01/30 10:08:03;;;;;;;10.13;3.17;;;;;;;3.22;100.00;96986.59;5010945;28;20810;-74
2022/01/30 10:10:30;;;;;;;4.07;2.53;;;;;;;3.12;100.00;96993.63;5011893;28;20435;-74
2022/01/30 10:13:08;;;;;;;10.40;2.30;;;;;;;3.14;100.00;96968.03;5010413;28;20889;-74
2022/01/30 10:15:48;;;;;;;6.60;2.90;;;;;;;3.07;100.00;96999.66;5010646;28;20493;-74
2022/01/30 10:18:16;;;;;;;5.30;2.73;;;;;;;3.10;100.00;96993.91;5010644;28;20485;-74
2022/01/30 10:20:43;;;;;;;2.80;1.70;;;;;;;3.31;100.00;97012.94;5010453;28;20471;-74
2022/01/30 10:23:11;;;;;;;8.80;2.50;;;;;;;3.17;100.00;96991.78;5010098;28;20518;-74
2022/01/30 10:25:58;;;;;;;3.27;2.20;;;;;;;3.30;100.00;97014.00;5011816;28;20462;-73
2022/01/30 10:28:32;;;;;;;5.10;2.70;;;;;;;3.37;100.00;97014.53;5010377;28;20441;-74
2022/01/30 10:31:06;;;;;;;6.83;2.40;;;;;;;3.26;100.00;96979.78;5010367;28;20446;-74
2022/01/30 10:33:41;;;;;;;5.03;2.40;;;;;;;3.48;100.00;97016.09;5010091;28;20461;-74
2022/01/30 10:36:09;;;;;;;6.97;2.50;;;;;;;3.50;100.00;97000.16;5010203;28;20442;-74
2022/01/30 10:38:45;;;;;;;4.57;3.53;;;;;;;3.31;100.00;97002.50;4993942;28;20443;-74
2022/01/30 10:43:54;;;;;;;3.33;3.03;;;;;;;3.26;100.00;97042.50;5010129;28;20827;-74
2022/01/30 10:46:32;;;;;;;3.73;2.10;;;;;;;3.15;100.00;97046.13;5010349;28;20502;-73
2022/01/30 10:49:01;;;;;;;5.10;3.30;;;;;;;3.33;100.00;97039.59;5010185;28;20481;-73
2022/01/30 10:51:30;;;;;;;10.90;2.57;;;;;;;3.32;100.00;97048.50;4993881;28;20466;-73
2022/01/30 10:54:04;;;;;;;7.70;3.47;;;;;;;3.13;100.00;97021.31;5009567;28;20499;-73
2022/01/30 10:56:31;;;;;;;4.27;2.67;;;;;;;3.35;100.00;97044.59;5010190;28;20473;-73
2022/01/30 10:59:09;;;;;;;12.97;2.77;;;;;;;3.39;100.00;97028.13;5010057;28;20443;-73
2022/01/30 11:01:41;;;;;;;15.93;3.00;;;;;;;3.19;100.00;97028.09;5010082;28;20442;-74
2022/01/30 11:04:31;;;;;;;8.73;3.50;;;;;;;3.36;100.00;97057.41;5009939;28;20992;-74
2022/01/30 11:07:00;;;;;;;5.63;3.10;;;;;;;3.29;100.00;97028.13;5010087;28;20933;-74
2022/01/30 11:09:42;;;;;;;8.13;3.13;;;;;;;3.47;100.00;97050.31;5009953;28;20450;-74
2022/01/30 11:12:13;;;;;;;3.90;2.40;;;;;;;3.26;100.00;97034.66;5011036;28;20465;-73
2022/01/30 11:17:17;;;;;;;8.40;3.27;;;;;;;3.59;100.00;97050.06;5011179;28;20430;-73
2022/01/30 11:19:47;;;;;;;4.50;3.00;;;;;;;3.71;100.00;97055.78;5009980;28;20497;-73
2022/01/30 11:22:16;;;;;;;4.93;2.03;;;;;;;3.61;100.00;97053.22;5011019;28;20521;-73
2022/01/30 11:24:47;;;;;;;3.20;1.93;;;;;;;3.63;100.00;97064.19;5009719;28;20911;-73
2022/01/30 11:27:17;;;;;;;8.40;2.10;;;;;;;3.63;100.00;97049.28;5009846;28;20415;-73
2022/01/30 11:29:45;;;;;;;2.90;2.67;;;;;;;3.60;100.00;97039.31;5010182;28;20451;-73
2022/01/30 11:32:13;;;;;;;7.60;3.17;;;;;;;3.31;100.00;97017.41;5010952;28;20450;-73
2022/01/30 11:34:41;;;;;;;2.47;2.20;;;;;;;3.64;100.00;97050.84;5010665;28;20565;-73
2022/01/30 11:37:10;;;;;;;9.80;2.70;;;;;;;3.56;100.00;97048.75;5009859;28;20867;-73
2022/01/30 11:39:42;;;;;;;8.57;2.63;;;;;;;3.55;100.00;97058.44;5011025;28;20471;-73
2022/01/30 11:42:09;;;;;;;6.80;2.60;;;;;;;3.44;100.00;97058.69;5009701;28;21074;-73
2022/01/30 11:44:37;;;;;;;7.60;2.40;;;;;;;3.37;100.00;97060.78;5011037;28;20446;-73
2022/01/30 11:47:03;;;;;;;9.53;3.40;;;;;;;3.32;100.00;97069.41;5009703;28;20439;-73
2022/01/30 11:49:42;;;;;;;12.87;2.30;;;;;;;3.33;100.00;97064.97;5009592;28;20445;-73
2022/01/30 11:52:11;;;;;;;7.60;2.83;;;;;;;3.24;100.00;97062.88;5010910;28;20445;-73
2022/01/30 11:54:45;;;;;;;3.30;2.30;;;;;;;3.44;100.00;97056.84;4993583;28;20461;-73
2022/01/30 11:57:18;;;;;;;8.40;3.80;;;;;;;3.40;100.00;97055.81;5009554;28;20524;-73
2022/01/30 11:59:46;;;;;;;3.87;2.50;;;;;;;3.37;100.00;97047.72;4993297;28;20909;-74
2022/01/30 12:02:24;;;;;;;6.83;2.40;;;;;;;3.38;100.00;97037.00;5009371;28;20473;-73
2022/01/30 12:05:03;;;;;;;8.07;3.17;;;;;;;3.18;100.00;97001.19;4993374;28;20498;-73
2022/01/30 12:07:40;;;;;;;7.50;2.50;;;;;;;3.40;100.00;97039.34;5012424;28;20435;-73
2022/01/30 12:10:16;;;;;;;5.93;2.50;;;;;;;3.41;100.00;97033.88;5014392;28;20977;-73
2022/01/30 12:12:46;;;;;;;7.23;2.63;;;;;;;3.47;100.00;97048.50;5012949;28;20891;-73
2022/01/30 12:15:42;;;;;;;3.43;2.27;;;;;;;3.31;100.00;97036.47;5012865;28;20998;-73
2022/01/30 12:18:17;;;;;;;8.63;3.20;;;;;;;3.42;100.00;97026.81;5013038;28;20501;-73
2022/01/30 12:20:56;;;;;;;8.63;3.13;;;;;;;3.56;100.00;97025.22;5012913;28;20893;-73
2022/01/30 12:23:29;;;;;;;7.03;3.03;;;;;;;3.70;100.00;97012.38;5013067;28;20466;-73
2022/01/30 12:26:07;;;;;;;6.43;3.03;;;;;;;3.70;100.00;97010.56;5012865;28;20463;-73
2022/01/30 12:28:54;;;;;;;2.63;1.87;;;;;;;3.74;100.00;97002.97;5012933;28;20426;-73
2022/01/30 12:31:34;;;;;;;8.93;2.93;;;;;;;3.64;100.00;96984.69;5012628;28;20533;-73
2022/01/30 12:34:01;;;;;;;3.40;2.30;;;;;;;3.75;100.00;97017.63;5012397;28;20999;-73
2022/01/30 12:36:30;;;;;;;4.93;2.60;;;;;;;3.75;100.00;97017.63;5013827;28;20467;-73
2022/01/30 12:39:07;;;;;;;5.13;3.00;;;;;;;3.51;100.00;97033.88;5013721;28;20972;-73
2022/01/30 12:41:36;;;;;;;6.27;1.93;;;;;;;3.62;100.00;97007.72;5013774;28;20454;-73
2022/01/30 12:44:09;;;;;;;12.00;2.87;;;;;;;3.54;100.00;97007.19;5012147;28;20482;-73
2022/01/30 12:46:48;;;;;;;4.40;2.07;;;;;;;3.66;100.00;97000.91;4996116;28;20916;-74
2022/01/30 12:49:27;;;;;;;7.20;2.83;;;;;;;3.73;100.00;97002.19;5012257;28;20457;-74
2022/01/30 12:51:57;;;;;;;8.20;2.90;;;;;;;3.49;100.00;96988.91;5012525;28;20521;-74
2022/01/30 12:54:26;;;;;;;9.70;3.23;;;;;;;3.65;100.00;97002.72;5012062;28;20999;-74
2022/01/30 12:56:55;;;;;;;7.50;2.70;;;;;;;4.01;100.00;96992.97;5012225;28;20466;-74
2022/01/30 12:59:25;;;;;;;2.80;2.60;;;;;;;4.14;100.00;97013.34;5012031;28;20490;-74
2022/01/30 13:01:52;;;;;;;5.00;2.63;;;;;;;3.92;100.00;97017.31;5012181;28;20482;-74